sensor_id;sensor_type;location;lat;lon;timestamp;temperature;humidity
7248;DHT22;3665;51.034;13.642;2023-06-05T00:00:57;8.90;99.90
7248;DHT22;3665;51.034;13.642;2023-06-05T00:05:44;8.80;99.90
7248;DHT22;3665;51.034;13.642;2023-06-05T00:10:32;8.80;99.90
7248;DHT22;3665;51.034;13.642;2023-06-05T00:15:22;8.70;99.90
7248;DHT22;3665;51.034;13.642;2023-06-05T00:20:08;8.80;99.90
7248;DHT22;3665;51.034;13.642;2023-06-05T00:24:55;8.70;99.90
7248;DHT22;3665;51.034;13.642;2023-06-05T00:29:53;8.60;99.90
7248;DHT22;3665;51.034;13.642;2023-06-05T00:34:48;8.60;99.90
7248;DHT22;3665;51.034;13.642;2023-06-05T00:39:39;8.70;99.90
7248;DHT22;3665;51.034;13.642;2023-06-05T00:44:24;8.50;99.90
7248;DHT22;3665;51.034;13.642;2023-06-05T00:49:12;8.50;99.90
7248;DHT22;3665;51.034;13.642;2023-06-05T00:54:02;8.50;99.90
7248;DHT22;3665;51.034;13.642;2023-06-05T00:58:49;8.50;99.90
7248;DHT22;3665;51.034;13.642;2023-06-05T01:03:38;8.50;99.90
7248;DHT22;3665;51.034;13.642;2023-06-05T01:08:24;8.50;99.90
7248;DHT22;3665;51.034;13.642;2023-06-05T01:13:16;8.40;99.90
7248;DHT22;3665;51.034;13.642;2023-06-05T01:18:16;8.20;99.90
7248;DHT22;3665;51.034;13.642;2023-06-05T01:23:06;8.20;99.90
7248;DHT22;3665;51.034;13.642;2023-06-05T01:27:56;8.10;99.90
7248;DHT22;3665;51.034;13.642;2023-06-05T01:32:49;8.00;99.90
7248;DHT22;3665;51.034;13.642;2023-06-05T01:37:47;8.00;99.90
7248;DHT22;3665;51.034;13.642;2023-06-05T01:42:34;8.10;99.90
7248;DHT22;3665;51.034;13.642;2023-06-05T01:47:21;8.20;99.90
7248;DHT22;3665;51.034;13.642;2023-06-05T01:52:07;8.30;99.90
7248;DHT22;3665;51.034;13.642;2023-06-05T01:56:57;8.50;99.90
7248;DHT22;3665;51.034;13.642;2023-06-05T02:02:01;8.40;99.90
7248;DHT22;3665;51.034;13.642;2023-06-05T02:06:49;8.50;99.90
7248;DHT22;3665;51.034;13.642;2023-06-05T02:11:37;8.60;99.90
7248;DHT22;3665;51.034;13.642;2023-06-05T02:16:25;8.60;99.90
7248;DHT22;3665;51.034;13.642;2023-06-05T02:21:12;8.70;99.90
7248;DHT22;3665;51.034;13.642;2023-06-05T02:26:02;8.50;99.90
7248;DHT22;3665;51.034;13.642;2023-06-05T02:30:48;8.40;99.90
7248;DHT22;3665;51.034;13.642;2023-06-05T02:35:38;8.50;99.90
7248;DHT22;3665;51.034;13.642;2023-06-05T02:40:25;8.70;99.90
7248;DHT22;3665;51.034;13.642;2023-06-05T02:45:11;8.70;99.90
7248;DHT22;3665;51.034;13.642;2023-06-05T02:49:56;8.70;99.90
7248;DHT22;3665;51.034;13.642;2023-06-05T02:54:48;8.70;99.90
7248;DHT22;3665;51.034;13.642;2023-06-05T02:59:36;8.90;99.90
7248;DHT22;3665;51.034;13.642;2023-06-05T03:04:26;9.00;99.90
7248;DHT22;3665;51.034;13.642;2023-06-05T03:09:12;9.20;99.90
7248;DHT22;3665;51.034;13.642;2023-06-05T03:14:02;9.30;99.90
7248;DHT22;3665;51.034;13.642;2023-06-05T03:18:51;9.40;99.90
7248;DHT22;3665;51.034;13.642;2023-06-05T03:23:37;9.60;99.90
7248;DHT22;3665;51.034;13.642;2023-06-05T03:28:24;9.90;99.90
7248;DHT22;3665;51.034;13.642;2023-06-05T03:33:11;10.10;99.90
7248;DHT22;3665;51.034;13.642;2023-06-05T03:43:22;10.50;99.90
7248;DHT22;3665;51.034;13.642;2023-06-05T03:48:08;10.60;99.90
7248;DHT22;3665;51.034;13.642;2023-06-05T03:52:56;10.70;99.90
7248;DHT22;3665;51.034;13.642;2023-06-05T03:57:46;11.60;99.90
7248;DHT22;3665;51.034;13.642;2023-06-05T04:02:36;12.70;99.90
7248;DHT22;3665;51.034;13.642;2023-06-05T04:07:21;12.90;99.90
7248;DHT22;3665;51.034;13.642;2023-06-05T04:12:08;12.90;99.90
7248;DHT22;3665;51.034;13.642;2023-06-05T04:16:56;13.00;99.90
7248;DHT22;3665;51.034;13.642;2023-06-05T04:21:59;13.10;99.90
7248;DHT22;3665;51.034;13.642;2023-06-05T04:26:53;13.20;99.90
7248;DHT22;3665;51.034;13.642;2023-06-05T04:31:37;13.40;99.90
7248;DHT22;3665;51.034;13.642;2023-06-05T04:36:26;13.40;99.90
7248;DHT22;3665;51.034;13.642;2023-06-05T04:41:30;13.40;99.90
7248;DHT22;3665;51.034;13.642;2023-06-05T04:46:17;13.50;99.90
7248;DHT22;3665;51.034;13.642;2023-06-05T04:51:04;14.10;99.90
7248;DHT22;3665;51.034;13.642;2023-06-05T04:55:53;14.70;99.90
7248;DHT22;3665;51.034;13.642;2023-06-05T05:00:57;14.90;99.90
7248;DHT22;3665;51.034;13.642;2023-06-05T05:06:03;14.50;99.90
7248;DHT22;3665;51.034;13.642;2023-06-05T05:10:50;14.40;99.90
7248;DHT22;3665;51.034;13.642;2023-06-05T05:15:37;14.40;99.90
7248;DHT22;3665;51.034;13.642;2023-06-05T05:26:00;15.40;99.90
7248;DHT22;3665;51.034;13.642;2023-06-05T05:30:54;16.30;99.90
7248;DHT22;3665;51.034;13.642;2023-06-05T05:35:53;16.60;99.90
7248;DHT22;3665;51.034;13.642;2023-06-05T05:40:42;17.00;99.90
7248;DHT22;3665;51.034;13.642;2023-06-05T05:45:30;17.30;99.90
7248;DHT22;3665;51.034;13.642;2023-06-05T05:50:16;17.70;99.90
7248;DHT22;3665;51.034;13.642;2023-06-05T05:55:06;17.80;99.90
7248;DHT22;3665;51.034;13.642;2023-06-05T05:59:52;18.00;99.90
7248;DHT22;3665;51.034;13.642;2023-06-05T06:04:43;18.00;99.90
7248;DHT22;3665;51.034;13.642;2023-06-05T06:09:29;17.70;99.90
7248;DHT22;3665;51.034;13.642;2023-06-05T06:14:16;17.80;99.90
7248;DHT22;3665;51.034;13.642;2023-06-05T06:19:09;18.10;99.90
7248;DHT22;3665;51.034;13.642;2023-06-05T06:24:11;18.50;99.90
7248;DHT22;3665;51.034;13.642;2023-06-05T06:28:58;18.90;99.90
7248;DHT22;3665;51.034;13.642;2023-06-05T06:33:45;19.10;99.90
7248;DHT22;3665;51.034;13.642;2023-06-05T06:38:35;19.30;99.90
7248;DHT22;3665;51.034;13.642;2023-06-05T06:43:20;19.40;99.90
7248;DHT22;3665;51.034;13.642;2023-06-05T06:48:25;19.40;99.90
7248;DHT22;3665;51.034;13.642;2023-06-05T06:53:13;19.30;99.90
7248;DHT22;3665;51.034;13.642;2023-06-05T06:58:04;19.40;99.90
7248;DHT22;3665;51.034;13.642;2023-06-05T07:02:49;19.90;99.90
7248;DHT22;3665;51.034;13.642;2023-06-05T07:07:39;20.20;99.90
7248;DHT22;3665;51.034;13.642;2023-06-05T07:12:25;21.10;99.90
7248;DHT22;3665;51.034;13.642;2023-06-05T07:17:14;21.60;99.90
7248;DHT22;3665;51.034;13.642;2023-06-05T07:22:01;22.10;99.90
7248;DHT22;3665;51.034;13.642;2023-06-05T07:26:49;21.80;99.90
7248;DHT22;3665;51.034;13.642;2023-06-05T07:31:37;21.90;99.90
7248;DHT22;3665;51.034;13.642;2023-06-05T07:36:24;22.00;99.90
7248;DHT22;3665;51.034;13.642;2023-06-05T07:41:17;22.50;99.90
7248;DHT22;3665;51.034;13.642;2023-06-05T07:46:20;23.40;1.00
7248;DHT22;3665;51.034;13.642;2023-06-05T07:51:04;23.80;1.00
7248;DHT22;3665;51.034;13.642;2023-06-05T07:55:50;24.20;1.00
7248;DHT22;3665;51.034;13.642;2023-06-05T08:00:42;24.00;1.00
7248;DHT22;3665;51.034;13.642;2023-06-05T08:05:30;24.30;1.00
7248;DHT22;3665;51.034;13.642;2023-06-05T08:10:15;24.90;1.00
7248;DHT22;3665;51.034;13.642;2023-06-05T08:15:07;25.30;1.00
7248;DHT22;3665;51.034;13.642;2023-06-05T08:20:28;25.30;1.00
7248;DHT22;3665;51.034;13.642;2023-06-05T08:25:12;24.40;1.00
7248;DHT22;3665;51.034;13.642;2023-06-05T08:30:01;23.50;99.90
7248;DHT22;3665;51.034;13.642;2023-06-05T08:34:49;23.70;99.90
7248;DHT22;3665;51.034;13.642;2023-06-05T08:39:40;24.60;1.00
7248;DHT22;3665;51.034;13.642;2023-06-05T08:44:26;25.20;1.00
7248;DHT22;3665;51.034;13.642;2023-06-05T08:49:13;26.30;1.00
7248;DHT22;3665;51.034;13.642;2023-06-05T08:54:02;26.70;1.00
7248;DHT22;3665;51.034;13.642;2023-06-05T08:58:49;26.80;1.00
7248;DHT22;3665;51.034;13.642;2023-06-05T09:03:37;27.20;1.00
7248;DHT22;3665;51.034;13.642;2023-06-05T09:08:31;27.30;1.00
7248;DHT22;3665;51.034;13.642;2023-06-05T09:13:44;27.70;1.00
7248;DHT22;3665;51.034;13.642;2023-06-05T09:18:33;28.10;1.00
7248;DHT22;3665;51.034;13.642;2023-06-05T09:23:24;28.10;1.00
7248;DHT22;3665;51.034;13.642;2023-06-05T09:28:58;27.90;1.00
7248;DHT22;3665;51.034;13.642;2023-06-05T09:33:54;28.70;1.00
7248;DHT22;3665;51.034;13.642;2023-06-05T09:39:13;28.60;1.00
7248;DHT22;3665;51.034;13.642;2023-06-05T09:44:08;29.30;1.00
7248;DHT22;3665;51.034;13.642;2023-06-05T09:49:04;29.40;1.00
7248;DHT22;3665;51.034;13.642;2023-06-05T09:54:02;29.60;1.00
7248;DHT22;3665;51.034;13.642;2023-06-05T09:58:49;29.60;1.00
7248;DHT22;3665;51.034;13.642;2023-06-05T10:03:36;29.30;1.00
7248;DHT22;3665;51.034;13.642;2023-06-05T10:08:39;28.80;1.00
7248;DHT22;3665;51.034;13.642;2023-06-05T10:13:33;29.10;1.00
7248;DHT22;3665;51.034;13.642;2023-06-05T10:18:17;29.10;1.00
7248;DHT22;3665;51.034;13.642;2023-06-05T10:23:04;28.30;1.00
7248;DHT22;3665;51.034;13.642;2023-06-05T10:33:48;28.60;1.00
7248;DHT22;3665;51.034;13.642;2023-06-05T10:38:51;29.40;1.00
7248;DHT22;3665;51.034;13.642;2023-06-05T10:43:45;29.60;1.00
7248;DHT22;3665;51.034;13.642;2023-06-05T10:49:11;29.40;1.00
7248;DHT22;3665;51.034;13.642;2023-06-05T10:54:03;29.30;1.00
7248;DHT22;3665;51.034;13.642;2023-06-05T10:59:12;29.30;1.00
7248;DHT22;3665;51.034;13.642;2023-06-05T11:04:18;28.80;1.00
7248;DHT22;3665;51.034;13.642;2023-06-05T11:09:07;28.60;1.00
7248;DHT22;3665;51.034;13.642;2023-06-05T11:13:57;29.00;1.00
7248;DHT22;3665;51.034;13.642;2023-06-05T11:18:41;29.40;1.00
7248;DHT22;3665;51.034;13.642;2023-06-05T11:23:40;29.10;1.00
7248;DHT22;3665;51.034;13.642;2023-06-05T11:28:44;29.30;1.00
7248;DHT22;3665;51.034;13.642;2023-06-05T11:33:29;28.60;1.00
7248;DHT22;3665;51.034;13.642;2023-06-05T11:38:17;28.60;1.00
7248;DHT22;3665;51.034;13.642;2023-06-05T11:43:08;28.80;1.00
7248;DHT22;3665;51.034;13.642;2023-06-05T11:48:10;29.70;1.00
7248;DHT22;3665;51.034;13.642;2023-06-05T11:53:04;29.90;1.00
7248;DHT22;3665;51.034;13.642;2023-06-05T11:58:01;29.40;1.00
7248;DHT22;3665;51.034;13.642;2023-06-05T12:02:49;28.80;1.00
7248;DHT22;3665;51.034;13.642;2023-06-05T12:07:35;29.00;1.00
7248;DHT22;3665;51.034;13.642;2023-06-05T12:12:25;29.30;1.00
7248;DHT22;3665;51.034;13.642;2023-06-05T12:17:12;28.70;1.00
7248;DHT22;3665;51.034;13.642;2023-06-05T12:22:06;28.60;99.90
7248;DHT22;3665;51.034;13.642;2023-06-05T12:26:58;29.80;1.00
7248;DHT22;3665;51.034;13.642;2023-06-05T12:31:46;29.70;1.00
7248;DHT22;3665;51.034;13.642;2023-06-05T12:36:40;29.80;1.00
7248;DHT22;3665;51.034;13.642;2023-06-05T12:41:43;30.50;1.00
7248;DHT22;3665;51.034;13.642;2023-06-05T12:46:37;29.70;1.00
7248;DHT22;3665;51.034;13.642;2023-06-05T12:51:24;29.90;1.00
7248;DHT22;3665;51.034;13.642;2023-06-05T12:56:10;30.40;1.00
7248;DHT22;3665;51.034;13.642;2023-06-05T13:00:57;30.90;1.00
7248;DHT22;3665;51.034;13.642;2023-06-05T13:05:46;30.60;1.00
7248;DHT22;3665;51.034;13.642;2023-06-05T13:10:31;30.80;1.00
7248;DHT22;3665;51.034;13.642;2023-06-05T13:15:17;31.00;1.00
7248;DHT22;3665;51.034;13.642;2023-06-05T13:20:10;30.20;99.90
7248;DHT22;3665;51.034;13.642;2023-06-05T13:24:58;29.80;99.90
7248;DHT22;3665;51.034;13.642;2023-06-05T13:29:44;29.60;99.90
7248;DHT22;3665;51.034;13.642;2023-06-05T13:34:34;28.70;99.90
7248;DHT22;3665;51.034;13.642;2023-06-05T13:39:28;28.30;99.90
7248;DHT22;3665;51.034;13.642;2023-06-05T13:44:26;28.10;99.90
7248;DHT22;3665;51.034;13.642;2023-06-05T13:49:15;27.60;99.90
7248;DHT22;3665;51.034;13.642;2023-06-05T13:54:02;27.30;99.90
7248;DHT22;3665;51.034;13.642;2023-06-05T13:58:50;27.30;99.90
7248;DHT22;3665;51.034;13.642;2023-06-05T14:03:36;27.50;99.90
7248;DHT22;3665;51.034;13.642;2023-06-05T14:08:26;27.60;99.90
7248;DHT22;3665;51.034;13.642;2023-06-05T14:13:13;27.50;99.90
7248;DHT22;3665;51.034;13.642;2023-06-05T14:18:24;27.70;99.90
7248;DHT22;3665;51.034;13.642;2023-06-05T14:23:22;27.60;99.90
7248;DHT22;3665;51.034;13.642;2023-06-05T14:28:08;27.50;99.90
7248;DHT22;3665;51.034;13.642;2023-06-05T14:32:54;27.70;99.90
7248;DHT22;3665;51.034;13.642;2023-06-05T14:37:59;27.50;99.90
7248;DHT22;3665;51.034;13.642;2023-06-05T14:42:49;26.90;99.90
7248;DHT22;3665;51.034;13.642;2023-06-05T14:47:36;26.40;99.90
7248;DHT22;3665;51.034;13.642;2023-06-05T14:52:27;26.20;99.90
7248;DHT22;3665;51.034;13.642;2023-06-05T14:57:13;26.10;99.90
7248;DHT22;3665;51.034;13.642;2023-06-05T15:01:57;26.20;99.90
7248;DHT22;3665;51.034;13.642;2023-06-05T15:06:48;26.30;99.90
7248;DHT22;3665;51.034;13.642;2023-06-05T15:11:36;25.90;99.90
7248;DHT22;3665;51.034;13.642;2023-06-05T15:22:01;25.50;99.90
7248;DHT22;3665;51.034;13.642;2023-06-05T15:26:53;25.20;99.90
7248;DHT22;3665;51.034;13.642;2023-06-05T15:31:37;25.00;99.90
7248;DHT22;3665;51.034;13.642;2023-06-05T15:36:25;24.50;99.90
7248;DHT22;3665;51.034;13.642;2023-06-05T15:41:19;24.30;99.90
7248;DHT22;3665;51.034;13.642;2023-06-05T15:46:18;24.10;99.90
7248;DHT22;3665;51.034;13.642;2023-06-05T15:51:04;23.80;99.90
7248;DHT22;3665;51.034;13.642;2023-06-05T15:55:54;23.60;99.90
7248;DHT22;3665;51.034;13.642;2023-06-05T16:00:40;23.60;99.90
7248;DHT22;3665;51.034;13.642;2023-06-05T16:05:30;23.30;99.90
7248;DHT22;3665;51.034;13.642;2023-06-05T16:10:17;23.30;99.90
7248;DHT22;3665;51.034;13.642;2023-06-05T16:15:04;23.30;99.90
7248;DHT22;3665;51.034;13.642;2023-06-05T16:20:09;23.20;99.90
7248;DHT22;3665;51.034;13.642;2023-06-05T16:24:56;23.20;99.90
7248;DHT22;3665;51.034;13.642;2023-06-05T16:29:46;23.00;99.90
7248;DHT22;3665;51.034;13.642;2023-06-05T16:34:33;22.80;99.90
7248;DHT22;3665;51.034;13.642;2023-06-05T16:39:21;22.70;99.90
7248;DHT22;3665;51.034;13.642;2023-06-05T16:44:09;22.60;99.90
7248;DHT22;3665;51.034;13.642;2023-06-05T16:48:57;22.30;99.90
7248;DHT22;3665;51.034;13.642;2023-06-05T16:53:46;21.80;99.90
7248;DHT22;3665;51.034;13.642;2023-06-05T16:58:32;21.70;99.90
7248;DHT22;3665;51.034;13.642;2023-06-05T17:03:22;21.50;99.90
7248;DHT22;3665;51.034;13.642;2023-06-05T17:08:08;21.20;99.90
7248;DHT22;3665;51.034;13.642;2023-06-05T17:12:58;21.00;99.90
7248;DHT22;3665;51.034;13.642;2023-06-05T17:17:45;21.10;99.90
7248;DHT22;3665;51.034;13.642;2023-06-05T17:22:33;21.00;99.90
7248;DHT22;3665;51.034;13.642;2023-06-05T17:27:20;21.00;99.90
7248;DHT22;3665;51.034;13.642;2023-06-05T17:32:14;21.00;99.90
7248;DHT22;3665;51.034;13.642;2023-06-05T17:36:59;21.00;99.90
7248;DHT22;3665;51.034;13.642;2023-06-05T17:41:45;21.00;99.90
7248;DHT22;3665;51.034;13.642;2023-06-05T17:46:34;20.70;99.90
7248;DHT22;3665;51.034;13.642;2023-06-05T17:51:20;20.40;99.90
7248;DHT22;3665;51.034;13.642;2023-06-05T17:56:08;20.40;99.90
7248;DHT22;3665;51.034;13.642;2023-06-05T18:00:56;20.30;99.90
7248;DHT22;3665;51.034;13.642;2023-06-05T18:05:44;20.20;99.90
7248;DHT22;3665;51.034;13.642;2023-06-05T18:10:32;20.20;99.90
7248;DHT22;3665;51.034;13.642;2023-06-05T18:15:21;20.10;99.90
7248;DHT22;3665;51.034;13.642;2023-06-05T18:20:09;19.80;99.90
7248;DHT22;3665;51.034;13.642;2023-06-05T18:25:01;19.90;99.90
7248;DHT22;3665;51.034;13.642;2023-06-05T18:29:46;19.80;99.90
7248;DHT22;3665;51.034;13.642;2023-06-05T18:34:35;19.50;99.90
7248;DHT22;3665;51.034;13.642;2023-06-05T18:39:21;19.30;99.90
7248;DHT22;3665;51.034;13.642;2023-06-05T18:44:08;19.30;99.90
7248;DHT22;3665;51.034;13.642;2023-06-05T18:48:57;19.30;99.90
7248;DHT22;3665;51.034;13.642;2023-06-05T18:53:46;19.10;99.90
7248;DHT22;3665;51.034;13.642;2023-06-05T18:58:33;19.00;99.90
7248;DHT22;3665;51.034;13.642;2023-06-05T19:03:23;18.90;99.90
7248;DHT22;3665;51.034;13.642;2023-06-05T19:08:09;18.70;99.90
7248;DHT22;3665;51.034;13.642;2023-06-05T19:12:57;18.60;99.90
7248;DHT22;3665;51.034;13.642;2023-06-05T19:17:44;18.60;99.90
7248;DHT22;3665;51.034;13.642;2023-06-05T19:22:32;18.40;99.90
7248;DHT22;3665;51.034;13.642;2023-06-05T19:27:22;18.40;99.90
7248;DHT22;3665;51.034;13.642;2023-06-05T19:32:31;18.50;99.90
7248;DHT22;3665;51.034;13.642;2023-06-05T19:37:21;18.20;99.90
7248;DHT22;3665;51.034;13.642;2023-06-05T19:42:16;18.00;99.90
7248;DHT22;3665;51.034;13.642;2023-06-05T19:47:06;17.80;99.90
7248;DHT22;3665;51.034;13.642;2023-06-05T19:51:59;17.80;99.90
7248;DHT22;3665;51.034;13.642;2023-06-05T19:56:56;17.90;99.90
7248;DHT22;3665;51.034;13.642;2023-06-05T20:01:44;17.60;99.90
7248;DHT22;3665;51.034;13.642;2023-06-05T20:06:32;17.60;99.90
7248;DHT22;3665;51.034;13.642;2023-06-05T20:11:22;17.50;99.90
7248;DHT22;3665;51.034;13.642;2023-06-05T20:16:08;17.40;99.90
7248;DHT22;3665;51.034;13.642;2023-06-05T20:20:58;17.30;99.90
7248;DHT22;3665;51.034;13.642;2023-06-05T20:25:45;17.10;99.90
7248;DHT22;3665;51.034;13.642;2023-06-05T20:30:35;17.00;99.90
7248;DHT22;3665;51.034;13.642;2023-06-05T20:35:22;17.00;99.90
7248;DHT22;3665;51.034;13.642;2023-06-05T20:40:09;16.90;99.90
7248;DHT22;3665;51.034;13.642;2023-06-05T20:44:57;16.80;99.90
7248;DHT22;3665;51.034;13.642;2023-06-05T20:49:47;16.80;99.90
7248;DHT22;3665;51.034;13.642;2023-06-05T20:54:36;16.70;99.90
7248;DHT22;3665;51.034;13.642;2023-06-05T20:59:21;16.60;99.90
7248;DHT22;3665;51.034;13.642;2023-06-05T21:04:08;16.60;99.90
7248;DHT22;3665;51.034;13.642;2023-06-05T21:08:58;16.40;99.90
7248;DHT22;3665;51.034;13.642;2023-06-05T21:13:45;16.30;99.90
7248;DHT22;3665;51.034;13.642;2023-06-05T21:18:32;16.30;99.90
7248;DHT22;3665;51.034;13.642;2023-06-05T21:23:22;16.20;99.90
7248;DHT22;3665;51.034;13.642;2023-06-05T21:28:10;16.10;99.90
7248;DHT22;3665;51.034;13.642;2023-06-05T21:32:59;16.00;99.90
7248;DHT22;3665;51.034;13.642;2023-06-05T21:37:48;16.00;99.90
7248;DHT22;3665;51.034;13.642;2023-06-05T21:42:32;15.90;99.90
7248;DHT22;3665;51.034;13.642;2023-06-05T21:47:21;15.80;1.00
7248;DHT22;3665;51.034;13.642;2023-06-05T21:52:11;15.70;1.00
7248;DHT22;3665;51.034;13.642;2023-06-05T21:56:58;15.60;1.00
7248;DHT22;3665;51.034;13.642;2023-06-05T22:01:43;15.50;1.00
7248;DHT22;3665;51.034;13.642;2023-06-05T22:06:37;15.40;1.00
7248;DHT22;3665;51.034;13.642;2023-06-05T22:11:22;15.30;1.00
7248;DHT22;3665;51.034;13.642;2023-06-05T22:16:09;15.20;1.00
7248;DHT22;3665;51.034;13.642;2023-06-05T22:20:59;15.20;1.00
7248;DHT22;3665;51.034;13.642;2023-06-05T22:25:45;15.20;1.00
7248;DHT22;3665;51.034;13.642;2023-06-05T22:30:34;15.00;1.00
7248;DHT22;3665;51.034;13.642;2023-06-05T22:35:22;15.00;1.00
7248;DHT22;3665;51.034;13.642;2023-06-05T22:40:09;15.00;1.00
7248;DHT22;3665;51.034;13.642;2023-06-05T22:45:11;14.90;1.00
7248;DHT22;3665;51.034;13.642;2023-06-05T22:50:02;15.00;1.00
7248;DHT22;3665;51.034;13.642;2023-06-05T22:54:49;15.00;1.00
7248;DHT22;3665;51.034;13.642;2023-06-05T22:59:39;14.90;1.00
7248;DHT22;3665;51.034;13.642;2023-06-05T23:04:25;14.80;1.00
7248;DHT22;3665;51.034;13.642;2023-06-05T23:09:12;14.70;1.00
7248;DHT22;3665;51.034;13.642;2023-06-05T23:14:01;14.70;1.00
7248;DHT22;3665;51.034;13.642;2023-06-05T23:18:48;14.70;1.00
7248;DHT22;3665;51.034;13.642;2023-06-05T23:23:37;14.80;1.00
7248;DHT22;3665;51.034;13.642;2023-06-05T23:28:32;14.70;1.00
7248;DHT22;3665;51.034;13.642;2023-06-05T23:33:29;14.80;1.00
7248;DHT22;3665;51.034;13.642;2023-06-05T23:38:19;14.80;1.00
7248;DHT22;3665;51.034;13.642;2023-06-05T23:43:05;14.80;1.00
7248;DHT22;3665;51.034;13.642;2023-06-05T23:47:56;14.70;1.00
7248;DHT22;3665;51.034;13.642;2023-06-05T23:52:41;14.70;1.00
